Terminal Aerodrome Forecast
Issued by NWS

Home | Current Version | Previous Version | Text Only | Print | Product List | Glossary On
Versions: 1 2 3 4 5 6 7 8 9 10 11 12 13
000
FTUS42 KTAE 201100
TAFECP
TAF
KECP 201136Z 2012/2112 03006KT P6SM BKN008
     FM201600 05010KT P6SM BKN030
     FM201800 05010KT P6SM SCT040=

USA.gov is the U.S. government's official web portal to all federal, state and local government web resources and services.